Time;durP1;ratioP1;P1;durP2;ratioP2;P2;SDS_P1;SDS_P2;PMS_P1;PMS_P2;Temp;Humidity;BMP_temperature;BMP_pressure;BME280_temperature;BME280_humidity;BME280_pressure;Samples;Min_cycle;Max_cycle;Signal;HPM_P1;HPM_P2
2022/04/29 00:00:31;;;;;;;;;14.75;11.00;;;;;-146.67;100.00;57155.34;5082143;28;62021;-81
2022/04/29 00:02:56;;;;;;;;;13.25;11.75;;;;;-146.67;100.00;57155.34;5081459;27;61643;-81
2022/04/29 00:05:23;;;;;;;;;16.00;10.25;;;;;-146.67;100.00;57155.34;5080669;28;61898;-81
2022/04/29 00:07:48;;;;;;;;;15.25;12.00;;;;;-146.67;100.00;57155.34;5080122;28;62153;-81
2022/04/29 00:10:15;;;;;;;;;16.00;12.00;;;;;-146.67;100.00;57155.34;5081957;28;61924;-81
2022/04/29 00:12:43;;;;;;;;;15.50;12.50;;;;;-146.67;100.00;57155.34;5079753;27;63737;-81
2022/04/29 00:15:11;;;;;;;;;22.75;14.00;;;;;-146.67;100.00;57155.34;5080408;28;61847;-81
2022/04/29 00:17:37;;;;;;;;;16.25;15.25;;;;;-146.67;100.00;57155.34;5100275;27;62369;-81
2022/04/29 00:20:04;;;;;;;;;20.50;13.50;;;;;-146.67;100.00;57155.34;5085650;28;61902;-81
2022/04/29 00:22:30;;;;;;;;;20.75;15.75;;;;;-146.67;100.00;57155.34;5084756;28;61840;-80
2022/04/29 00:24:55;;;;;;;;;17.75;16.25;;;;;-146.67;100.00;57155.34;5085088;27;61963;-81
2022/04/29 00:27:21;;;;;;;;;12.25;11.50;;;;;-146.67;100.00;57155.34;5085288;28;62221;-80
2022/04/29 00:29:46;;;;;;;;;18.00;15.25;;;;;-146.67;100.00;57155.34;5085222;27;61852;-81
2022/04/29 00:32:11;;;;;;;;;16.25;12.25;;;;;-146.67;100.00;57155.34;5084414;28;61921;-80
2022/04/29 00:34:37;;;;;;;;;12.50;12.50;;;;;-146.67;100.00;57155.34;5100812;27;61966;-81
2022/04/29 00:37:03;;;;;;;;;17.50;12.00;;;;;-146.67;100.00;57155.34;5085157;28;61821;-81
2022/04/29 00:39:28;;;;;;;;;19.00;14.00;;;;;-146.67;100.00;57155.34;5085064;28;61960;-81
2022/04/29 00:41:54;;;;;;;;;12.50;10.50;;;;;-146.67;100.00;57155.34;5084341;28;61808;-81
2022/04/29 00:44:19;;;;;;;;;31.00;16.75;;;;;-146.67;100.00;57155.34;5083371;28;62134;-80
2022/04/29 00:46:46;;;;;;;;;18.00;14.00;;;;;-146.67;100.00;57155.34;5084948;27;61873;-81
2022/04/29 00:49:15;;;;;;;;;23.50;16.50;;;;;-146.67;100.00;57155.34;5083841;28;62165;-80
2022/04/29 00:51:43;;;;;;;;;15.75;14.75;;;;;-146.67;100.00;57155.34;5082929;28;63671;-81
2022/04/29 00:54:16;;;;;;;;;17.25;13.50;;;;;-146.67;100.00;57155.34;5084749;27;61858;-81
2022/04/29 00:56:43;;;;;;;;;18.00;12.75;;;;;-146.67;100.00;57155.34;5084924;28;62164;-80
2022/04/29 00:59:15;;;;;;;;;15.25;14.50;;;;;-146.67;100.00;57155.34;5084752;28;61969;-81
2022/04/29 01:01:43;;;;;;;;;16.50;14.25;;;;;-146.67;100.00;57155.34;5082876;28;64011;-81
2022/04/29 01:04:14;;;;;;;;;22.50;14.00;;;;;-146.67;100.00;57155.34;5084584;28;61773;-81
2022/04/29 01:06:39;;;;;;;;;17.00;14.75;;;;;-146.67;100.00;57155.34;5084938;28;61954;-81
2022/04/29 01:09:05;;;;;;;;;18.50;14.00;;;;;-146.67;100.00;57155.34;5084390;28;61947;-81
2022/04/29 01:11:32;;;;;;;;;18.00;13.25;;;;;-146.67;100.00;57155.34;5082347;28;63698;-81
2022/04/29 01:13:57;;;;;;;;;15.25;12.25;;;;;-146.67;100.00;57155.34;5083835;27;61917;-80
2022/04/29 01:16:23;;;;;;;;;15.50;11.75;;;;;-146.67;100.00;57155.34;5084616;28;62107;-81
2022/04/29 01:18:50;;;;;;;;;19.25;12.75;;;;;-146.67;100.00;57155.34;5084557;28;61864;-81
2022/04/29 01:21:16;;;;;;;;;20.50;16.50;;;;;-146.67;100.00;57155.34;5084032;28;62870;-81
2022/04/29 01:23:43;;;;;;;;;26.25;12.75;;;;;-146.67;100.00;57155.34;5082872;28;61889;-81
2022/04/29 01:26:14;;;;;;;;;21.25;16.00;;;;;-146.67;100.00;57155.34;5084285;27;61993;-81
2022/04/29 01:28:43;;;;;;;;;20.75;17.00;;;;;-146.67;100.00;57155.34;5081672;28;62219;-81
2022/04/29 01:31:11;;;;;;;;;27.75;15.75;;;;;-146.67;100.00;57155.34;5083720;28;61749;-81
2022/04/29 01:33:40;;;;;;;;;15.00;13.75;;;;;-146.67;100.00;57155.34;5082921;28;61901;-81
2022/04/29 01:36:06;;;;;;;;;18.75;14.25;;;;;-146.67;100.00;57155.34;5082681;28;61935;-81
2022/04/29 01:38:31;;;;;;;;;16.00;14.50;;;;;-146.67;100.00;57155.34;5084228;28;61834;-81
2022/04/29 01:40:56;;;;;;;;;17.75;15.00;;;;;-146.67;100.00;57155.34;5083453;27;62135;-81
2022/04/29 01:43:22;;;;;;;;;20.75;14.75;;;;;-146.67;100.00;57155.34;5083771;28;61857;-80
2022/04/29 01:45:47;;;;;;;;;19.25;13.50;;;;;-146.67;100.00;57155.34;5082848;28;61864;-81
2022/04/29 01:48:13;;;;;;;;;12.75;11.25;;;;;-146.67;100.00;57155.34;5083977;28;61932;-81
2022/04/29 01:50:38;;;;;;;;;20.25;13.75;;;;;-146.67;100.00;57155.34;5083550;28;61892;-81
2022/04/29 01:53:03;;;;;;;;;20.25;18.50;;;;;-146.67;100.00;57155.34;5083764;28;61919;-81
2022/04/29 01:55:29;;;;;;;;;20.25;15.75;;;;;-146.67;100.00;57155.34;5082648;28;62076;-80
2022/04/29 01:57:56;;;;;;;;;20.25;15.50;;;;;-146.67;100.00;57155.34;5082313;28;62073;-81
2022/04/29 02:00:22;;;;;;;;;21.25;17.25;;;;;-146.67;100.00;57155.34;5083337;28;61726;-81
2022/04/29 02:02:48;;;;;;;;;16.00;15.00;;;;;-146.67;100.00;57155.34;5083833;28;61896;-81
2022/04/29 02:05:13;;;;;;;;;20.75;13.00;;;;;-146.67;100.00;57155.34;5082313;28;62306;-81
2022/04/29 02:07:40;;;;;;;;;23.75;13.75;;;;;-146.67;100.00;57155.34;5082421;28;61877;-81
2022/04/29 02:10:06;;;;;;;;;18.50;14.75;;;;;-146.67;100.00;57155.34;5082603;28;61736;-81
2022/04/29 02:12:31;;;;;;;;;18.00;16.00;;;;;-146.67;100.00;57155.34;5083246;27;61897;-81
2022/04/29 02:14:58;;;;;;;;;19.00;16.25;;;;;-146.67;100.00;57155.34;5083669;27;62360;-81
2022/04/29 02:17:24;;;;;;;;;14.25;12.25;;;;;-146.67;100.00;57155.34;5082322;28;61818;-80
2022/04/29 02:19:49;;;;;;;;;15.75;11.75;;;;;-146.67;100.00;57155.34;5083031;27;62547;-81
2022/04/29 02:22:15;;;;;;;;;15.50;11.00;;;;;-146.67;100.00;57155.34;5083233;27;61832;-80
2022/04/29 02:24:42;;;;;;;;;11.75;11.00;;;;;-146.67;100.00;57155.34;5083554;27;61872;-80
2022/04/29 02:27:08;;;;;;;;;19.25;15.25;;;;;-146.67;100.00;57155.34;5081757;28;62025;-81
2022/04/29 02:29:34;;;;;;;;;16.75;13.75;;;;;-146.67;100.00;57155.34;5081555;28;64455;-81
2022/04/29 02:32:00;;;;;;;;;18.25;13.75;;;;;-146.67;100.00;57155.34;5083415;27;61893;-81
2022/04/29 02:34:26;;;;;;;;;19.00;14.75;;;;;-146.67;100.00;57155.34;5083158;27;61914;-80
2022/04/29 02:36:52;;;;;;;;;19.75;16.00;;;;;-146.67;100.00;57155.34;5082166;28;62090;-81
2022/04/29 02:39:18;;;;;;;;;16.50;13.25;;;;;-146.67;100.00;57155.34;5081881;28;61935;-81
2022/04/29 02:41:44;;;;;;;;;22.50;15.75;;;;;-146.67;100.00;57155.34;5086536;27;61778;-81
2022/04/29 02:44:10;;;;;;;;;18.50;12.50;;;;;-146.67;100.00;57155.34;5087650;27;61886;-82
2022/04/29 02:46:36;;;;;;;;;17.75;14.00;;;;;-146.67;100.00;57155.34;5083480;27;62104;-82
2022/04/29 02:49:01;;;;;;;;;16.00;13.25;;;;;-146.67;100.00;57155.34;5082484;28;62533;-82
2022/04/29 02:51:27;;;;;;;;;14.75;14.75;;;;;-146.67;100.00;57155.34;5082865;27;61789;-82
2022/04/29 02:53:53;;;;;;;;;14.25;13.00;;;;;-146.67;100.00;57155.34;5083207;27;61954;-81
2022/04/29 02:56:19;;;;;;;;;20.75;16.00;;;;;-146.67;100.00;57155.34;5081308;28;62156;-82
2022/04/29 02:58:45;;;;;;;;;15.75;11.25;;;;;-146.67;100.00;57155.34;5081140;28;64136;-82
2022/04/29 03:01:10;;;;;;;;;19.50;16.25;;;;;-146.67;100.00;57155.34;5081518;28;61766;-82
2022/04/29 03:03:36;;;;;;;;;19.00;13.25;;;;;-146.67;100.00;57155.34;5082842;27;62374;-82
2022/04/29 03:06:01;;;;;;;;;18.75;14.50;;;;;-146.67;100.00;57155.34;5083129;27;61659;-81
2022/04/29 03:08:27;;;;;;;;;15.75;13.75;;;;;-146.67;100.00;57155.34;5081634;27;61872;-82
2022/04/29 03:10:52;;;;;;;;;21.50;13.00;;;;;-146.67;100.00;57155.34;5082365;28;61930;-82
2022/04/29 03:13:18;;;;;;;;;24.25;17.25;;;;;-146.67;100.00;57155.34;5082315;27;61923;-82
2022/04/29 03:15:44;;;;;;;;;18.25;12.75;;;;;-146.67;100.00;57155.34;5082787;28;61786;-82
2022/04/29 03:18:18;;;;;;;;;18.25;15.00;;;;;-146.67;100.00;57155.34;5082081;28;62039;-82
2022/04/29 03:20:45;;;;;;;;;17.75;16.50;;;;;-146.67;100.00;57155.34;5082746;27;61938;-82
2022/04/29 03:23:12;;;;;;;;;22.50;15.50;;;;;-146.67;100.00;57155.34;5082530;27;61924;-81
2022/04/29 03:25:38;;;;;;;;;19.00;15.00;;;;;-146.67;100.00;57155.34;5082533;28;61865;-82
2022/04/29 03:28:07;;;;;;;;;20.75;14.00;;;;;-146.67;100.00;57155.34;5081777;28;63465;-82
2022/04/29 03:30:33;;;;;;;;;17.00;14.25;;;;;-146.67;100.00;57155.34;5082222;28;61956;-81
2022/04/29 03:33:07;;;;;;;;;20.75;16.50;;;;;-146.67;100.00;57155.34;5082430;28;61974;-82
2022/04/29 03:35:45;;;;;;;;;14.00;12.75;;;;;-146.67;100.00;57155.34;5080997;28;62010;-82
2022/04/29 03:38:11;;;;;;;;;15.25;13.75;;;;;-146.67;100.00;57155.34;5081399;28;62680;-82
2022/04/29 03:40:37;;;;;;;;;16.25;15.25;;;;;-146.67;100.00;57155.34;5082163;28;61818;-81
2022/04/29 03:43:02;;;;;;;;;21.50;15.25;;;;;-146.67;100.00;57155.34;5082177;28;62979;-82
2022/04/29 03:45:28;;;;;;;;;12.50;11.00;;;;;-146.67;100.00;57155.34;5082339;28;62113;-82
2022/04/29 03:47:57;;;;;;;;;16.75;13.50;;;;;-146.67;100.00;57155.34;5080342;28;63657;-81
2022/04/29 03:50:25;;;;;;;;;17.25;13.50;;;;;-146.67;100.00;57155.34;5081992;28;61914;-82
2022/04/29 03:52:53;;;;;;;;;17.50;13.00;;;;;-146.67;100.00;57155.34;5085261;28;61961;-82
2022/04/29 03:55:20;;;;;;;;;14.00;13.00;;;;;-146.67;100.00;57155.34;5084815;28;61973;-82
2022/04/29 03:57:46;;;;;;;;;21.00;15.50;;;;;-146.67;100.00;57155.34;5084927;28;61921;-82
2022/04/29 04:00:13;;;;;;;;;16.00;12.75;;;;;-146.67;100.00;57155.34;5085531;28;61941;-82
2022/04/29 04:02:39;;;;;;;;;13.50;12.00;;;;;-146.67;100.00;57155.34;5084213;28;62107;-81
2022/04/29 04:05:05;;;;;;;;;18.25;16.50;;;;;-146.67;100.00;57155.34;5084422;28;62130;-82
2022/04/29 04:07:30;;;;;;;;;26.25;16.50;;;;;-146.67;100.00;57155.34;5084769;28;61967;-82
2022/04/29 04:09:55;;;;;;;;;16.50;13.75;;;;;-146.67;100.00;57155.34;5085125;28;62191;-82
2022/04/29 04:12:21;;;;;;;;;19.25;16.00;;;;;-146.67;100.00;57155.34;5085295;27;62041;-82
2022/04/29 04:14:47;;;;;;;;;16.00;14.50;;;;;-146.67;100.00;57155.34;5085521;27;61960;-81
2022/04/29 04:17:12;;;;;;;;;23.25;16.50;;;;;-146.67;100.00;57155.34;5084999;28;61912;-81
2022/04/29 04:19:38;;;;;;;;;26.00;17.25;;;;;-146.67;100.00;57155.34;5084915;28;62072;-82
2022/04/29 04:22:03;;;;;;;;;14.75;13.25;;;;;-146.67;100.00;57155.34;5084066;28;62169;-82
2022/04/29 04:24:29;;;;;;;;;25.50;14.00;;;;;-146.67;100.00;57155.34;5085245;27;61995;-82
2022/04/29 04:26:55;;;;;;;;;26.75;15.50;;;;;-146.67;100.00;57155.34;5084724;28;62114;-81
2022/04/29 04:29:21;;;;;;;;;20.50;14.50;;;;;-146.67;100.00;57155.34;5083832;28;61905;-82
2022/04/29 04:31:47;;;;;;;;;17.00;13.50;;;;;-146.67;100.00;57155.34;5084930;27;61885;-82
2022/04/29 04:36:58;;;;;;;;;28.25;18.25;;;;;-146.67;100.00;57155.34;5084115;28;61821;-81
2022/04/29 04:39:24;;;;;;;;;27.25;15.00;;;;;-146.67;100.00;57155.34;5084984;27;62386;-81
2022/04/29 04:41:50;;;;;;;;;15.50;14.25;;;;;-146.67;100.00;57155.34;5083412;28;61766;-81
2022/04/29 04:44:16;;;;;;;;;14.50;12.50;;;;;-146.67;100.00;57155.34;5084968;27;61936;-82
2022/04/29 04:46:41;;;;;;;;;19.75;14.00;;;;;-146.67;100.00;57155.34;5084494;28;61942;-81
2022/04/29 04:49:06;;;;;;;;;17.50;13.50;;;;;-146.67;100.00;57155.34;5084994;27;61897;-82
2022/04/29 04:51:32;;;;;;;;;22.50;14.50;;;;;-146.67;100.00;57155.34;5084682;28;61854;-81
2022/04/29 04:53:58;;;;;;;;;19.50;17.25;;;;;-146.67;100.00;57155.34;5085267;28;61908;-82
2022/04/29 04:56:23;;;;;;;;;17.00;10.75;;;;;-146.67;100.00;57155.34;5084392;28;61805;-82
2022/04/29 04:58:49;;;;;;;;;22.25;17.00;;;;;-146.67;100.00;57155.34;5084526;27;61847;-82
2022/04/29 05:01:14;;;;;;;;;19.00;14.50;;;;;-146.67;100.00;57155.34;5083687;28;61911;-82
2022/04/29 05:03:40;;;;;;;;;17.75;14.25;;;;;-146.67;100.00;57155.34;5083138;28;61977;-81
2022/04/29 05:06:05;;;;;;;;;23.25;13.75;;;;;-146.67;100.00;57155.34;5084102;28;61851;-82
2022/04/29 05:08:31;;;;;;;;;20.75;13.50;;;;;-146.67;100.00;57155.34;5083138;28;61877;-81
2022/04/29 05:10:56;;;;;;;;;17.75;14.50;;;;;-146.67;100.00;57155.34;5083057;28;61811;-81
2022/04/29 05:13:21;;;;;;;;;21.25;14.00;;;;;-146.67;100.00;57155.34;5084352;27;61925;-82
2022/04/29 05:15:47;;;;;;;;;20.75;12.00;;;;;-146.67;100.00;57155.34;5083890;28;61967;-83
2022/04/29 05:18:12;;;;;;;;;16.25;12.75;;;;;-146.67;100.00;57155.34;5084714;28;62090;-82
2022/04/29 05:20:38;;;;;;;;;18.25;17.25;;;;;-146.67;100.00;57155.34;5084472;28;61896;-82
2022/04/29 05:23:03;;;;;;;;;17.75;14.25;;;;;-146.67;100.00;57155.34;5083244;28;61746;-82
2022/04/29 05:25:28;;;;;;;;;17.25;15.00;;;;;-146.67;100.00;57155.34;5082856;27;61825;-83
2022/04/29 05:27:54;;;;;;;;;16.25;15.00;;;;;-146.67;100.00;57155.34;5084297;27;62360;-83
2022/04/29 05:30:19;;;;;;;;;18.50;11.75;;;;;-146.67;100.00;57155.34;5084525;27;62743;-83
2022/04/29 05:32:46;;;;;;;;;21.25;17.25;;;;;-146.67;100.00;57155.34;5084450;27;62175;-83
2022/04/29 05:35:13;;;;;;;;;15.50;15.50;;;;;-146.67;100.00;57155.34;5083275;27;61840;-83
2022/04/29 05:37:40;;;;;;;;;21.00;13.75;;;;;-146.67;100.00;57155.34;5083866;28;62354;-81
2022/04/29 05:42:51;;;;;;;;;18.50;17.25;;;;;-146.67;100.00;57155.34;5084159;28;62079;-81
2022/04/29 05:45:16;;;;;;;;;22.75;18.50;;;;;-146.67;100.00;57155.34;5083715;27;62002;-84
2022/04/29 05:47:42;;;;;;;;;18.00;15.50;;;;;-146.67;100.00;57155.34;5078703;28;62783;-89
2022/04/29 05:50:07;;;;;;;;;16.25;12.25;;;;;-146.67;100.00;57155.34;5079305;28;61913;-88
2022/04/29 05:52:32;;;;;;;;;20.25;15.25;;;;;-146.67;100.00;57155.34;5083593;27;61888;-88
2022/04/29 05:54:58;;;;;;;;;21.50;14.00;;;;;-146.67;100.00;57155.34;5082427;27;63406;-88
2022/04/29 05:57:24;;;;;;;;;15.25;15.00;;;;;-146.67;100.00;57155.34;5083206;27;62135;-80
2022/04/29 05:59:50;;;;;;;;;25.00;15.00;;;;;-146.67;100.00;57155.34;5083283;27;61829;-86
2022/04/29 06:02:15;;;;;;;;;18.00;15.00;;;;;-146.67;100.00;57155.34;5083233;27;61841;-82
2022/04/29 06:04:41;;;;;;;;;17.00;17.00;;;;;-146.67;100.00;57155.34;5095965;27;63873;-85
2022/04/29 06:07:06;;;;;;;;;20.25;16.00;;;;;-146.67;100.00;57155.34;5082957;27;62193;-81
2022/04/29 06:09:32;;;;;;;;;18.25;15.75;;;;;-146.67;100.00;57155.34;5081727;28;62107;-86
2022/04/29 06:11:57;;;;;;;;;21.25;16.00;;;;;-146.67;100.00;57155.34;5083246;27;61807;-84
2022/04/29 06:14:23;;;;;;;;;18.25;12.50;;;;;-146.67;100.00;57155.34;5079997;28;62062;-88
2022/04/29 06:16:48;;;;;;;;;17.75;14.00;;;;;-146.67;100.00;57155.34;5083737;27;61906;-88
2022/04/29 06:19:14;;;;;;;;;15.50;14.00;;;;;-146.67;100.00;57155.34;5083310;27;62485;-87
2022/04/29 06:21:40;;;;;;;;;20.25;17.00;;;;;-146.67;100.00;57155.34;5083676;27;61882;-89
2022/04/29 06:24:08;;;;;;;;;24.50;18.00;;;;;-146.67;100.00;57155.34;5080767;27;63184;-88
2022/04/29 06:26:34;;;;;;;;;22.00;13.25;;;;;-146.67;100.00;57155.34;5072052;28;61903;-88
2022/04/29 06:28:59;;;;;;;;;26.25;17.25;;;;;-146.67;100.00;57155.34;5073801;28;61862;-84
2022/04/29 06:31:24;;;;;;;;;25.75;18.75;;;;;-146.67;100.00;57155.34;5083420;27;62098;-78
2022/04/29 06:33:50;;;;;;;;;24.00;15.50;;;;;-146.67;100.00;57155.34;5077879;28;64865;-89
2022/04/29 06:36:15;;;;;;;;;17.00;13.50;;;;;-146.67;100.00;57155.34;5094133;27;61938;-81
2022/04/29 06:38:41;;;;;;;;;20.25;15.50;;;;;-146.67;100.00;57155.34;5062891;28;62470;-81
2022/04/29 06:41:06;;;;;;;;;15.75;12.75;;;;;-146.67;100.00;57155.34;5069696;28;61731;-91
2022/04/29 06:43:32;;;;;;;;;18.00;16.50;;;;;-146.67;100.00;57155.34;5062603;28;61915;-78
2022/04/29 06:45:58;;;;;;;;;21.25;19.75;;;;;-146.67;100.00;57155.34;5078499;27;61945;-91
2022/04/29 06:48:23;;;;;;;;;16.75;15.00;;;;;-146.67;100.00;57155.34;5086487;27;62266;-91
2022/04/29 06:50:49;;;;;;;;;20.75;17.75;;;;;-146.67;100.00;57155.34;5084426;27;62163;-89
2022/04/29 06:53:14;;;;;;;;;22.00;19.25;;;;;-146.67;100.00;57155.34;5110384;27;63565;-93
2022/04/29 06:55:40;;;;;;;;;23.25;17.25;;;;;-146.67;100.00;57155.34;5118174;27;61844;-88
2022/04/29 06:58:07;;;;;;;;;20.50;14.75;;;;;-146.67;100.00;57155.34;5087952;27;61802;-90
2022/04/29 07:00:34;;;;;;;;;20.75;14.00;;;;;-146.67;100.00;57155.34;5083039;28;61889;-90
2022/04/29 07:03:02;;;;;;;;;18.25;17.00;;;;;-146.67;100.00;57155.34;5072062;27;61870;-91
2022/04/29 07:05:31;;;;;;;;;23.50;17.00;;;;;-146.67;100.00;57155.34;5062618;28;61973;-89
2022/04/29 07:07:57;;;;;;;;;24.25;19.50;;;;;-146.67;100.00;57155.34;5062210;28;61748;-91
2022/04/29 07:10:27;;;;;;;;;21.50;16.25;;;;;-146.67;100.00;57155.34;5071585;27;61926;-90
2022/04/29 07:12:52;;;;;;;;;18.50;13.75;;;;;-146.67;100.00;57155.34;5082108;27;63460;-89
2022/04/29 07:15:18;;;;;;;;;22.00;14.75;;;;;-146.67;100.00;57155.34;5082648;28;61717;-90
2022/04/29 07:17:44;;;;;;;;;17.25;15.75;;;;;-146.67;100.00;57155.34;5075018;27;61960;-81
2022/04/29 07:20:11;;;;;;;;;18.25;15.00;;;;;-146.67;100.00;57155.34;5062640;28;61878;-79
2022/04/29 07:22:40;;;;;;;;;24.75;18.25;;;;;-146.67;100.00;57155.34;5081383;28;63286;-79
2022/04/29 07:25:08;;;;;;;;;29.50;18.25;;;;;-146.67;100.00;57155.34;5081438;27;61830;-79
2022/04/29 07:27:34;;;;;;;;;22.00;18.50;;;;;-146.67;100.00;57155.34;5078149;28;61949;-79
2022/04/29 07:30:00;;;;;;;;;24.00;14.75;;;;;-146.67;100.00;57155.34;5080507;28;61808;-78
2022/04/29 07:32:26;;;;;;;;;27.00;19.25;;;;;-146.67;100.00;57155.34;5081208;28;61928;-79
2022/04/29 07:43:10;;;;;;;;;26.00;19.50;;;;;-146.67;100.00;57155.34;5080756;28;62167;-78
2022/04/29 07:45:37;;;;;;;;;20.00;15.50;;;;;-146.67;100.00;57155.34;5081357;27;61826;-79
2022/04/29 07:48:05;;;;;;;;;32.00;23.00;;;;;-146.67;100.00;57155.34;5081929;28;61905;-79
2022/04/29 07:50:35;;;;;;;;;23.50;19.50;;;;;-146.67;100.00;57155.34;5080328;28;61977;-79
2022/04/29 07:53:02;;;;;;;;;17.75;17.25;;;;;-146.67;100.00;57155.34;5080269;28;63097;-80
2022/04/29 07:55:27;;;;;;;;;29.75;21.25;;;;;-146.67;100.00;57155.34;5082137;27;62297;-87
2022/04/29 07:57:53;;;;;;;;;23.75;18.50;;;;;-146.67;100.00;57155.34;5082406;28;61819;-84
2022/04/29 08:00:19;;;;;;;;;27.25;20.00;;;;;-146.67;100.00;57155.34;5080353;28;61825;-85
2022/04/29 08:02:44;;;;;;;;;25.00;20.50;;;;;-146.67;100.00;57155.34;5097352;27;63463;-85
2022/04/29 08:05:10;;;;;;;;;21.50;19.25;;;;;-146.67;100.00;57155.34;5081941;28;61853;-86
2022/04/29 08:07:37;;;;;;;;;26.25;21.00;;;;;-146.67;100.00;57155.34;5080757;28;61759;-87
2022/04/29 08:10:14;;;;;;;;;23.75;20.25;;;;;-146.67;100.00;57155.34;5082012;27;61817;-86
2022/04/29 08:12:39;;;;;;;;;27.00;19.00;;;;;-146.67;100.00;57155.34;5080921;27;62088;-78
2022/04/29 08:15:06;;;;;;;;;21.25;19.25;;;;;-146.67;100.00;57155.34;5081706;27;61763;-86
2022/04/29 08:17:31;;;;;;;;;22.75;19.75;;;;;-146.67;100.00;57155.34;5081604;28;62026;-79
2022/04/29 08:19:58;;;;;;;;;20.50;18.75;;;;;-146.67;100.00;57155.34;5080393;28;61810;-79
2022/04/29 08:22:24;;;;;;;;;29.00;23.50;;;;;-146.67;100.00;57155.34;5080502;28;61943;-79
2022/04/29 08:24:50;;;;;;;;;22.50;18.50;;;;;-146.67;100.00;57155.34;5081558;28;62137;-77
2022/04/29 08:27:16;;;;;;;;;18.00;16.00;;;;;-146.67;100.00;57155.34;5080523;28;61802;-85
2022/04/29 08:29:41;;;;;;;;;27.25;20.50;;;;;-146.67;100.00;57155.34;5097059;27;62164;-80
2022/04/29 08:32:07;;;;;;;;;28.50;20.75;;;;;-146.67;100.00;57155.34;5067236;28;64102;-85
2022/04/29 08:34:35;;;;;;;;;17.75;16.75;;;;;-146.67;100.00;57155.34;5081017;27;61893;-83
2022/04/29 08:37:03;;;;;;;;;27.00;24.50;;;;;-146.67;100.00;57155.34;5081619;27;62028;-83
2022/04/29 08:39:30;;;;;;;;;29.25;22.50;;;;;-146.67;100.00;57155.34;5082724;28;61827;-84
2022/04/29 08:42:00;;;;;;;;;27.75;19.75;;;;;-146.67;100.00;57155.34;5082264;27;62632;-82
2022/04/29 08:44:36;;;;;;;;;28.25;19.50;;;;;-146.67;100.00;57155.34;5081029;28;61851;-83
2022/04/29 08:47:04;;;;;;;;;29.00;22.00;;;;;-146.67;100.00;57155.34;5079703;22;62048;-75
2022/04/29 08:49:34;;;;;;;;;24.75;19.75;;;;;-146.67;100.00;57155.34;5031349;28;61899;-76
2022/04/29 08:52:03;;;;;;;;;29.75;20.75;;;;;-146.67;100.00;57155.34;5031886;28;62074;-76
2022/04/29 09:00:01;;;;;;;;;28.00;22.00;;;;;-146.67;100.00;57155.34;5034278;28;62093;-75
2022/04/29 09:02:30;;;;;;;;;24.50;20.00;;;;;-146.67;100.00;57155.34;5031105;28;62079;-75
2022/04/29 09:04:57;;;;;;;;;28.50;20.00;;;;;-146.67;100.00;57155.34;5030698;28;62342;-75
2022/04/29 09:08:00;;;;;;;;;26.25;20.50;;;;;-146.67;100.00;57155.34;5033499;28;62012;-75
2022/04/29 09:10:29;;;;;;;;;28.50;20.50;;;;;-146.67;100.00;57155.34;5032282;28;61912;-75
2022/04/29 09:12:55;;;;;;;;;29.25;21.00;;;;;-146.67;100.00;57155.34;5034625;28;62844;-75
2022/04/29 09:15:21;;;;;;;;;24.25;23.25;;;;;-146.67;100.00;57155.34;5031930;28;62173;-75
2022/04/29 09:17:48;;;;;;;;;22.00;18.25;;;;;-146.67;100.00;57155.34;5032856;28;61886;-76
2022/04/29 09:20:22;;;;;;;;;28.50;22.75;;;;;-146.67;100.00;57155.34;5032871;28;61973;-76
2022/04/29 09:22:51;;;;;;;;;28.75;21.25;;;;;-146.67;100.00;57155.34;5039351;28;63036;-75
2022/04/29 09:25:17;;;;;;;;;21.75;16.75;;;;;-146.67;100.00;57155.34;5036766;28;62352;-76
2022/04/29 09:28:00;;;;;;;;;31.25;19.75;;;;;-146.67;100.00;57155.34;5039846;28;62173;-76
2022/04/29 09:30:39;;;;;;;;;31.75;22.00;;;;;-146.67;100.00;57155.34;5043856;28;61961;-76
2022/04/29 09:33:07;;;;;;;;;23.00;19.00;;;;;-146.67;100.00;57155.34;5036873;28;61930;-76
2022/04/29 09:35:42;;;;;;;;;24.75;22.25;;;;;-146.67;100.00;57155.34;5039147;28;61923;-76
2022/04/29 09:40:54;;;;;;;;;22.25;19.25;;;;;-146.67;100.00;57155.34;5039436;28;61673;-76
2022/04/29 09:43:32;;;;;;;;;32.25;25.25;;;;;-146.67;100.00;57155.34;5028251;28;62843;-76
2022/04/29 09:46:18;;;;;;;;;26.50;22.50;;;;;-146.67;100.00;57155.34;5029107;28;61887;-75
2022/04/29 09:49:06;;;;;;;;;26.75;20.50;;;;;-146.67;100.00;57155.34;5024955;28;61943;-76
2022/04/29 09:51:45;;;;;;;;;33.50;23.50;;;;;-146.67;100.00;57155.34;5035288;28;61844;-76
2022/04/29 09:54:27;;;;;;;;;26.50;21.25;;;;;-146.67;100.00;57155.34;5042886;28;61904;-76
2022/04/29 09:57:03;;;;;;;;;19.00;15.50;;;;;-146.67;100.00;57155.34;5036198;28;62018;-76
2022/04/29 09:59:39;;;;;;;;;24.75;19.00;;;;;-146.67;100.00;57155.34;5027260;28;62012;-76
2022/04/29 10:02:06;;;;;;;;;24.00;18.50;;;;;-146.67;100.00;57155.34;5028780;28;62071;-76
2022/04/29 10:04:35;;;;;;;;;31.75;20.00;;;;;-146.67;100.00;57155.34;5038691;28;62984;-76
2022/04/29 10:07:09;;;;;;;;;25.50;17.25;;;;;-146.67;100.00;57155.34;5054579;28;61942;-76
2022/04/29 10:09:40;;;;;;;;;22.00;20.00;;;;;-146.67;100.00;57155.34;5024758;28;62160;-76
2022/04/29 10:12:16;;;;;;;;;24.25;20.25;;;;;-146.67;100.00;57155.34;5035636;28;61757;-76
2022/04/29 10:14:44;;;;;;;;;28.75;18.50;;;;;-146.67;100.00;57155.34;5026957;28;61978;-77
2022/04/29 10:22:57;;;;;;;;;22.75;16.25;;;;;-146.67;100.00;57155.34;5024034;28;61879;-75
2022/04/29 10:25:26;;;;;;;;;16.75;14.50;;;;;-146.67;100.00;57155.34;5024147;28;62694;-75
2022/04/29 10:27:52;;;;;;;;;25.25;19.50;;;;;-146.67;100.00;57155.34;5031688;28;61788;-76
2022/04/29 10:30:33;;;;;;;;;19.25;18.00;;;;;-146.67;100.00;57155.34;5025991;28;61858;-78
2022/04/29 10:33:10;;;;;;;;;28.00;22.25;;;;;-146.67;100.00;57155.34;5035154;28;61800;-76
2022/04/29 10:35:39;;;;;;;;;20.25;18.00;;;;;-146.67;100.00;57155.34;5020708;28;64332;-77
2022/04/29 10:38:23;;;;;;;;;22.50;18.25;;;;;-146.67;100.00;57155.34;5033515;28;61993;-76
2022/04/29 10:41:08;;;;;;;;;17.25;15.50;;;;;-146.67;100.00;57155.34;5041239;28;62023;-77
2022/04/29 10:43:38;;;;;;;;;21.00;19.00;;;;;-146.67;100.00;57155.34;5022688;28;61922;-77
2022/04/29 10:46:03;;;;;;;;;18.50;16.75;;;;;-146.67;100.00;57155.34;5020187;28;62230;-77
2022/04/29 10:48:39;;;;;;;;;20.00;17.25;;;;;-146.67;100.00;57155.34;5037002;28;61665;-77
2022/04/29 10:51:14;;;;;;;;;28.25;18.00;;;;;-146.67;100.00;57155.34;5042067;28;62014;-74
2022/04/29 10:53:43;;;;;;;;;21.00;16.75;;;;;-146.67;100.00;57155.34;5035109;28;61758;-75
2022/04/29 10:56:32;;;;;;;;;22.00;21.00;;;;;-146.67;100.00;57155.34;5021665;28;61971;-75
2022/04/29 10:59:04;;;;;;;;;21.75;17.00;;;;;-146.67;100.00;57155.34;5023363;28;62477;-74
2022/04/29 11:01:34;;;;;;;;;17.50;14.75;;;;;-146.67;100.00;57155.34;5020905;28;61888;-75
2022/04/29 11:04:01;;;;;;;;;15.75;15.50;;;;;-146.67;100.00;57155.34;5033734;28;61879;-74
2022/04/29 11:06:47;;;;;;;;;22.00;19.00;;;;;-146.67;100.00;57155.34;5030626;28;61689;-74
2022/04/29 11:09:35;;;;;;;;;21.75;15.50;;;;;-146.67;100.00;57155.34;5032441;28;61724;-75
2022/04/29 11:12:02;;;;;;;;;15.25;13.00;;;;;-146.67;100.00;57155.34;5031180;28;61980;-74
2022/04/29 11:14:28;;;;;;;;;17.50;14.00;;;;;-146.67;100.00;57155.34;5029936;28;61972;-74
2022/04/29 11:17:07;;;;;;;;;15.00;13.75;;;;;-146.67;100.00;57155.34;5045195;28;62082;-74
2022/04/29 11:19:40;;;;;;;;;16.00;14.25;;;;;-146.67;100.00;57155.34;5034415;28;61760;-74
2022/04/29 11:24:53;;;;;;;;;19.25;16.75;;;;;-146.67;100.00;57155.34;5032602;28;61836;-75
2022/04/29 11:27:26;;;;;;;;;15.75;13.50;;;;;-146.67;100.00;57155.34;5032738;28;64122;-74